Terminal Aerodrome Forecast
Issued by NWS

Home | Current Version | Previous Version | Text Only | Print | Product List | Glossary On
Versions: 1 2 3 4 5 6 7 8 9 10 11 12 13 14 15 16 17 18 19 20 21 22 23 24 25 26 27 28 29 30 31 32 33 34 35 36 37 38 39 40
000
FTAK31 PAFA 141555 AAB
TAFAFA
TAF AMD
PAFA 141555Z 1416/1518 VRB03KT P6SM SCT050 BKN100 OVC250
     FM142100 25015KT P6SM VCSH BKN050 OVC100
     FM150100 25015KT 6SM -RA BR SCT015 BKN035 OVC050
     FM150600 25015KT 6SM -RA BR SCT015 BKN025 OVC035=

USA.gov is the U.S. government's official web portal to all federal, state and local government web resources and services.